Time;durP1;ratioP1;P1;durP2;ratioP2;P2;SDS_P1;SDS_P2;PMS_P1;PMS_P2;Temp;Humidity;BMP_temperature;BMP_pressure;BME280_temperature;BME280_humidity;BME280_pressure;Samples;Min_cycle;Max_cycle;Signal;HPM_P1;HPM_P2
2022/12/07 00:00:02;;;;;;;1999.90;999.90;;;2.50;99.90;;;;;;5027718;28;20482;-68
2022/12/07 00:02:28;;;;;;;1999.90;999.90;;;2.50;99.90;;;;;;5023512;28;20467;-69
2022/12/07 00:04:55;;;;;;;1999.90;999.90;;;2.50;99.90;;;;;;5026377;28;20459;-68
2022/12/07 00:07:22;;;;;;;1999.90;999.90;;;2.50;99.90;;;;;;5029269;28;20484;-68
2022/12/07 00:09:48;;;;;;;1999.90;999.90;;;2.40;99.90;;;;;;5030140;28;20459;-68
2022/12/07 00:12:16;;;;;;;1999.90;999.90;;;2.40;99.90;;;;;;5030852;28;20471;-69
2022/12/07 00:14:43;;;;;;;1999.90;999.90;;;2.40;99.90;;;;;;5031562;28;20471;-69
2022/12/07 00:17:10;;;;;;;1999.90;999.90;;;2.40;99.90;;;;;;5027524;28;20487;-69
2022/12/07 00:19:37;;;;;;;1999.90;999.90;;;2.30;99.90;;;;;;5033715;28;20485;-68
2022/12/07 00:22:03;;;;;;;1999.90;999.90;;;2.30;99.90;;;;;;5032105;28;20463;-68
2022/12/07 00:24:30;;;;;;;1999.90;999.90;;;2.20;99.90;;;;;;5030720;28;20467;-67
2022/12/07 00:26:57;;;;;;;1999.90;999.90;;;2.20;99.90;;;;;;5032530;28;20483;-68
2022/12/07 00:29:25;;;;;;;1999.90;999.90;;;2.20;99.90;;;;;;5031911;28;20457;-68
2022/12/07 00:31:52;;;;;;;1999.90;999.90;;;2.20;99.90;;;;;;5029127;28;20459;-68
2022/12/07 00:34:21;;;;;;;1999.90;999.90;;;2.30;99.90;;;;;;5030797;28;20451;-68
2022/12/07 00:36:48;;;;;;;1999.90;999.90;;;2.30;99.90;;;;;;5032345;28;20482;-68
2022/12/07 00:39:15;;;;;;;1999.90;999.90;;;2.60;99.90;;;;;;5033037;28;20846;-68
2022/12/07 00:41:42;;;;;;;1999.90;999.90;;;2.70;99.90;;;;;;5032977;28;20459;-68
2022/12/07 00:44:09;;;;;;;1999.90;999.90;;;2.90;99.90;;;;;;5031157;28;20463;-68
2022/12/07 00:46:37;;;;;;;1999.90;999.90;;;3.00;99.90;;;;;;5028148;28;20502;-69
2022/12/07 00:49:04;;;;;;;1999.90;999.90;;;3.10;99.90;;;;;;5034161;28;20459;-68
2022/12/07 00:51:30;;;;;;;1999.90;999.90;;;3.10;99.90;;;;;;5031906;28;20455;-68
2022/12/07 00:53:57;;;;;;;1999.90;999.90;;;3.20;99.90;;;;;;5030773;28;20832;-68
2022/12/07 00:56:26;;;;;;;1999.90;999.90;;;3.20;99.90;;;;;;5033556;28;20482;-68
2022/12/07 00:58:55;;;;;;;1999.90;999.90;;;3.20;99.90;;;;;;5031107;28;20458;-68
2022/12/07 01:01:22;;;;;;;1999.90;999.90;;;3.30;99.90;;;;;;5028490;28;20482;-68
2022/12/07 01:03:50;;;;;;;1999.90;999.90;;;3.30;99.90;;;;;;5033730;28;20466;-67
2022/12/07 01:06:18;;;;;;;1999.90;999.90;;;3.30;99.90;;;;;;5032442;28;21248;-68
2022/12/07 01:08:45;;;;;;;1999.90;999.90;;;3.40;99.90;;;;;;5031748;28;20492;-68
2022/12/07 01:11:14;;;;;;;1999.90;999.90;;;3.40;99.90;;;;;;5032691;28;20470;-68
2022/12/07 01:13:42;;;;;;;1999.90;999.90;;;3.60;99.90;;;;;;5029370;28;20994;-68
2022/12/07 01:16:11;;;;;;;1999.90;999.90;;;3.40;99.90;;;;;;5028134;28;20490;-68
2022/12/07 01:18:38;;;;;;;1999.90;999.90;;;3.50;99.90;;;;;;5032160;28;20470;-67
2022/12/07 01:21:08;;;;;;;1999.90;999.90;;;3.60;99.90;;;;;;5030051;28;20482;-68
2022/12/07 01:23:36;;;;;;;1999.90;999.90;;;3.60;99.90;;;;;;5029524;28;20982;-68
2022/12/07 01:26:06;;;;;;;1999.90;999.90;;;3.60;99.90;;;;;;5030825;28;20482;-69
2022/12/07 01:28:33;;;;;;;1999.90;999.90;;;3.50;99.90;;;;;;5031439;28;20986;-67
2022/12/07 01:31:02;;;;;;;1999.90;999.90;;;3.50;99.90;;;;;;5026860;28;20463;-68
2022/12/07 01:33:30;;;;;;;1999.90;999.90;;;3.60;99.90;;;;;;5030551;28;20472;-68
2022/12/07 01:36:02;;;;;;;1999.90;999.90;;;3.90;99.90;;;;;;5029370;28;20463;-67
2022/12/07 01:38:31;;;;;;;1999.90;999.90;;;3.70;99.90;;;;;;5031672;28;20463;-68
2022/12/07 01:40:59;;;;;;;1999.90;999.90;;;3.80;99.90;;;;;;5031508;28;20487;-67
2022/12/07 01:43:29;;;;;;;1999.90;999.90;;;3.80;99.90;;;;;;5031417;28;20463;-68
2022/12/07 01:45:56;;;;;;;1999.90;999.90;;;3.80;99.90;;;;;;5029946;28;20475;-67
2022/12/07 01:48:27;;;;;;;1999.90;999.90;;;3.90;99.90;;;;;;5031111;28;20470;-68
2022/12/07 01:50:57;;;;;;;1999.90;999.90;;;3.90;99.90;;;;;;5032184;28;20467;-69
2022/12/07 01:53:27;;;;;;;1999.90;999.90;;;3.90;99.90;;;;;;5030494;28;20462;-68
2022/12/07 01:55:57;;;;;;;1999.90;999.90;;;4.00;99.90;;;;;;5031071;28;20471;-68
2022/12/07 01:58:24;;;;;;;1999.90;999.90;;;3.90;99.90;;;;;;5028355;28;20463;-69
2022/12/07 02:00:51;;;;;;;1999.90;999.90;;;3.90;99.90;;;;;;5029426;28;20487;-68
2022/12/07 02:03:22;;;;;;;1999.90;999.90;;;3.90;99.90;;;;;;5030878;28;20540;-68
2022/12/07 02:05:50;;;;;;;1999.90;999.90;;;3.90;99.90;;;;;;5046969;28;20918;-68
2022/12/07 02:08:18;;;;;;;1999.90;999.90;;;4.00;99.90;;;;;;5035168;28;20479;-68
2022/12/07 02:10:45;;;;;;;1999.90;999.90;;;4.00;99.90;;;;;;5031029;28;21002;-68
2022/12/07 02:13:16;;;;;;;1999.90;999.90;;;4.00;99.90;;;;;;5027557;28;20466;-68
2022/12/07 02:15:56;;;;;;;1999.90;999.90;;;4.00;99.90;;;;;;5028446;28;20459;-68
2022/12/07 02:18:32;;;;;;;1999.90;999.90;;;4.00;99.90;;;;;;5027036;28;20459;-68
2022/12/07 02:21:08;;;;;;;1999.90;999.90;;;4.00;99.90;;;;;;5029021;28;20477;-69
2022/12/07 02:24:16;;;;;;;1999.90;999.90;;;4.00;99.90;;;;;;5028909;28;20467;-68
2022/12/07 02:27:07;;;;;;;1999.90;999.90;;;4.20;99.90;;;;;;4995868;28;20486;-68
2022/12/07 02:29:39;;;;;;;1999.90;999.90;;;4.20;99.90;;;;;;5029514;28;20829;-68
2022/12/07 02:32:15;;;;;;;1999.90;999.90;;;4.20;99.90;;;;;;5027483;28;20451;-68
2022/12/07 02:34:49;;;;;;;1999.90;999.90;;;4.30;99.90;;;;;;5028873;28;20513;-68
2022/12/07 02:37:26;;;;;;;1999.90;999.90;;;4.30;99.90;;;;;;5026954;28;20483;-69
2022/12/07 02:39:58;;;;;;;1999.90;999.90;;;4.30;99.90;;;;;;5024349;28;20462;-68
2022/12/07 02:42:31;;;;;;;1999.90;999.90;;;4.30;99.90;;;;;;5027478;28;20517;-68
2022/12/07 02:45:01;;;;;;;1999.90;999.90;;;4.20;99.90;;;;;;5027377;28;20582;-69
2022/12/07 02:47:30;;;;;;;1999.90;999.90;;;4.20;99.90;;;;;;5028712;28;20497;-68
2022/12/07 02:49:57;;;;;;;1999.90;999.90;;;4.20;99.90;;;;;;5029525;28;20478;-68
2022/12/07 02:52:24;;;;;;;1999.90;999.90;;;4.20;99.90;;;;;;5025921;28;20463;-69
2022/12/07 02:54:50;;;;;;;1999.90;999.90;;;4.30;99.90;;;;;;5026216;28;20455;-68
2022/12/07 02:57:32;;;;;;;1999.90;999.90;;;4.30;99.90;;;;;;5026649;28;20478;-68
2022/12/07 03:00:07;;;;;;;1999.90;999.90;;;4.30;99.90;;;;;;5024921;28;20500;-68
2022/12/07 03:02:44;;;;;;;1999.90;999.90;;;4.30;99.90;;;;;;5028575;28;21022;-69
2022/12/07 03:05:27;;;;;;;1999.90;999.90;;;4.30;99.90;;;;;;5026154;28;20966;-68
2022/12/07 03:08:02;;;;;;;1999.90;999.90;;;4.20;99.90;;;;;;5023945;28;20699;-68
2022/12/07 03:10:36;;;;;;;1999.90;999.90;;;4.20;99.90;;;;;;5028563;28;20450;-69
2022/12/07 03:13:10;;;;;;;1999.90;999.90;;;4.20;99.90;;;;;;5028427;28;20959;-68
2022/12/07 03:15:44;;;;;;;1999.90;999.90;;;4.20;99.90;;;;;;5027205;28;20969;-68
2022/12/07 03:18:13;;;;;;;1999.90;999.90;;;4.20;99.90;;;;;;5027229;28;20463;-69
2022/12/07 03:20:42;;;;;;;1999.90;999.90;;;4.20;99.90;;;;;;5025988;28;20482;-68
2022/12/07 03:23:10;;;;;;;1999.90;999.90;;;4.20;99.90;;;;;;5025981;28;20470;-68
2022/12/07 03:25:43;;;;;;;1999.90;999.90;;;4.20;99.90;;;;;;5027421;28;20463;-68
2022/12/07 03:28:12;;;;;;;1999.90;999.90;;;4.10;99.90;;;;;;5027140;28;20466;-68
2022/12/07 03:30:46;;;;;;;1999.90;999.90;;;4.20;99.90;;;;;;5028702;28;20459;-69
2022/12/07 03:33:19;;;;;;;1999.90;999.90;;;4.10;99.90;;;;;;5027371;28;20466;-69
2022/12/07 03:35:50;;;;;;;1999.90;999.90;;;4.10;99.90;;;;;;5026409;28;22308;-68
2022/12/07 03:38:22;;;;;;;1999.90;999.90;;;4.10;99.90;;;;;;5025782;28;20466;-68
2022/12/07 03:40:55;;;;;;;1999.90;999.90;;;4.10;99.90;;;;;;5028009;28;20510;-68
2022/12/07 03:43:22;;;;;;;1999.90;999.90;;;4.10;99.90;;;;;;5028941;28;20469;-68
2022/12/07 03:46:01;;;;;;;1999.90;999.90;;;4.20;99.90;;;;;;5028851;28;20466;-68
2022/12/07 03:48:36;;;;;;;1999.90;999.90;;;4.20;99.90;;;;;;5030947;28;20466;-68
2022/12/07 03:51:12;;;;;;;1999.90;999.90;;;4.30;99.90;;;;;;5033677;28;20450;-68
2022/12/07 03:53:44;;;;;;;1999.90;999.90;;;4.20;99.90;;;;;;5029550;28;20462;-69
2022/12/07 03:56:12;;;;;;;1999.90;999.90;;;4.20;99.90;;;;;;5030754;28;20487;-68
2022/12/07 03:58:39;;;;;;;1999.90;999.90;;;4.30;99.90;;;;;;5032617;28;20470;-69
2022/12/07 04:01:08;;;;;;;1999.90;999.90;;;4.30;99.90;;;;;;5032506;28;20486;-68
2022/12/07 04:03:35;;;;;;;1999.90;999.90;;;4.20;99.90;;;;;;5030804;28;20464;-69
2022/12/07 04:06:02;;;;;;;1999.90;999.90;;;4.10;99.90;;;;;;5033584;28;20467;-69
2022/12/07 04:08:28;;;;;;;1999.90;999.90;;;4.10;99.90;;;;;;5030708;28;20467;-68
2022/12/07 04:10:55;;;;;;;1999.90;999.90;;;4.20;99.90;;;;;;5032352;28;20464;-68
2022/12/07 04:13:22;;;;;;;1999.90;999.90;;;4.10;99.90;;;;;;5033151;28;20465;-68
2022/12/07 04:15:49;;;;;;;1999.90;999.90;;;4.20;99.90;;;;;;5031757;28;20466;-68
2022/12/07 04:18:17;;;;;;;1999.90;999.90;;;4.30;99.90;;;;;;5032678;28;21021;-68
2022/12/07 04:20:44;;;;;;;1999.90;999.90;;;4.20;99.90;;;;;;5030977;28;20486;-68
2022/12/07 04:23:10;;;;;;;1999.90;999.90;;;4.20;99.90;;;;;;5030368;28;20470;-68
2022/12/07 04:25:37;;;;;;;1999.90;999.90;;;4.20;99.90;;;;;;5032317;28;20459;-68
2022/12/07 04:28:04;;;;;;;1999.90;999.90;;;4.20;99.90;;;;;;5032332;28;21019;-68
2022/12/07 04:30:31;;;;;;;1999.90;999.90;;;4.20;99.90;;;;;;5031804;28;20459;-68
2022/12/07 04:32:57;;;;;;;1999.90;999.90;;;4.20;99.90;;;;;;5032493;28;20458;-69
2022/12/07 04:35:25;;;;;;;1999.90;999.90;;;4.10;99.90;;;;;;5030342;28;20469;-68
2022/12/07 04:37:52;;;;;;;1999.90;999.90;;;4.00;99.90;;;;;;5030951;28;20481;-68
2022/12/07 04:40:19;;;;;;;1999.90;999.90;;;4.00;99.90;;;;;;5032363;28;21157;-69
2022/12/07 04:42:46;;;;;;;1999.90;999.90;;;4.10;99.90;;;;;;5030403;28;20470;-68
2022/12/07 04:45:12;;;;;;;1999.90;999.90;;;4.20;99.90;;;;;;5031100;28;20463;-68
2022/12/07 04:47:39;;;;;;;1999.90;999.90;;;4.10;99.90;;;;;;5033484;28;21010;-68
2022/12/07 04:50:07;;;;;;;1999.90;999.90;;;4.10;99.90;;;;;;5031584;28;20463;-68
2022/12/07 04:52:35;;;;;;;1999.90;999.90;;;4.10;99.90;;;;;;5030215;28;20458;-69
2022/12/07 04:55:02;;;;;;;1999.90;999.90;;;4.10;99.90;;;;;;5039228;28;20463;-68
2022/12/07 04:57:29;;;;;;;1999.90;999.90;;;4.10;99.90;;;;;;5034386;28;20510;-68
2022/12/07 04:59:55;;;;;;;1999.90;999.90;;;4.10;99.90;;;;;;5033146;28;20474;-68
2022/12/07 05:02:22;;;;;;;1999.90;999.90;;;4.10;99.90;;;;;;5038561;28;20482;-69
2022/12/07 05:04:49;;;;;;;1999.90;999.90;;;4.10;99.90;;;;;;5036076;28;20459;-68
2022/12/07 05:07:16;;;;;;;1999.90;999.90;;;4.20;99.90;;;;;;5029569;28;20479;-68
2022/12/07 05:09:44;;;;;;;1999.90;999.90;;;4.20;99.90;;;;;;5029260;28;20467;-68
2022/12/07 05:12:10;;;;;;;1999.90;999.90;;;4.20;99.90;;;;;;5032331;28;20459;-67
2022/12/07 05:14:37;;;;;;;1999.90;999.90;;;4.20;99.90;;;;;;5031540;28;20460;-68
2022/12/07 05:17:04;;;;;;;1999.90;999.90;;;4.20;99.90;;;;;;5033788;28;20491;-68
2022/12/07 05:19:31;;;;;;;1999.90;999.90;;;4.20;99.90;;;;;;5030663;28;20464;-68
2022/12/07 05:21:58;;;;;;;1999.90;999.90;;;4.20;99.90;;;;;;5030785;28;21212;-69
2022/12/07 05:24:25;;;;;;;1999.90;999.90;;;4.10;99.90;;;;;;5032146;28;20462;-68
2022/12/07 05:26:53;;;;;;;1999.90;999.90;;;4.10;99.90;;;;;;5032615;28;20490;-68
2022/12/07 05:29:19;;;;;;;1999.90;999.90;;;4.00;99.90;;;;;;5033334;28;20467;-68
2022/12/07 05:31:46;;;;;;;1999.90;999.90;;;4.00;99.90;;;;;;5032427;28;20482;-68
2022/12/07 05:34:13;;;;;;;1999.90;999.90;;;4.00;99.90;;;;;;5029294;28;20470;-68
2022/12/07 05:36:40;;;;;;;1999.90;999.90;;;3.90;99.90;;;;;;5028838;28;20475;-68
2022/12/07 05:39:08;;;;;;;1999.90;999.90;;;4.00;99.90;;;;;;5033398;28;20466;-68
2022/12/07 05:44:34;;;;;;;1999.90;999.90;;;4.00;99.90;;;;;;5007764;28;20524;-68
2022/12/07 05:47:01;;;;;;;1999.90;999.90;;;4.00;99.90;;;;;;5010727;28;20499;-68
2022/12/07 05:49:28;;;;;;;1999.90;999.90;;;4.00;99.90;;;;;;5015081;28;20462;-69
2022/12/07 05:51:54;;;;;;;1999.90;999.90;;;4.00;99.90;;;;;;5030996;28;20479;-70
2022/12/07 05:54:21;;;;;;;1999.90;999.90;;;4.00;99.90;;;;;;5031936;28;20469;-68
2022/12/07 05:56:48;;;;;;;1999.90;999.90;;;4.00;99.90;;;;;;5032907;28;21066;-68
2022/12/07 05:59:23;;;;;;;1999.90;999.90;;;4.00;99.90;;;;;;5034324;28;20462;-69
2022/12/07 06:01:52;;;;;;;1999.90;999.90;;;4.00;99.90;;;;;;5032707;28;20483;-69
2022/12/07 06:04:19;;;;;;;1999.90;999.90;;;3.90;99.90;;;;;;5041169;28;20458;-68
2022/12/07 06:06:46;;;;;;;1999.90;999.90;;;3.90;99.90;;;;;;5037745;28;20980;-68
2022/12/07 06:09:13;;;;;;;1999.90;999.90;;;3.90;99.90;;;;;;5031781;28;20474;-68
2022/12/07 06:14:24;;;;;;;1999.90;999.90;;;4.00;99.90;;;;;;5031070;28;20597;-69
2022/12/07 06:16:52;;;;;;;1999.90;999.90;;;4.00;99.90;;;;;;5029607;28;20564;-68
2022/12/07 06:19:19;;;;;;;1999.90;999.90;;;4.20;99.90;;;;;;5028811;28;20998;-69
2022/12/07 06:21:46;;;;;;;1999.90;999.90;;;4.30;99.90;;;;;;5031758;28;20494;-68
2022/12/07 06:24:14;;;;;;;1999.90;999.90;;;4.30;99.90;;;;;;5033921;28;20459;-68
2022/12/07 06:26:42;;;;;;;1999.90;999.90;;;4.20;99.90;;;;;;5037387;28;21002;-69
2022/12/07 06:29:09;;;;;;;1999.90;999.90;;;4.20;99.90;;;;;;5041568;28;20463;-69
2022/12/07 06:31:36;;;;;;;1999.90;999.90;;;4.20;99.90;;;;;;5029647;28;20462;-69
2022/12/07 06:34:07;;;;;;;1999.90;999.90;;;4.10;99.90;;;;;;5026662;28;20470;-69
2022/12/07 06:36:33;;;;;;;1999.90;999.90;;;4.00;99.90;;;;;;5023823;28;21344;-68
2022/12/07 06:39:00;;;;;;;1999.90;999.90;;;4.10;99.90;;;;;;5028213;28;20463;-69
2022/12/07 06:41:27;;;;;;;1999.90;999.90;;;4.10;99.90;;;;;;5028520;28;20983;-68
2022/12/07 06:43:54;;;;;;;1999.90;999.90;;;4.00;99.90;;;;;;5029389;28;20987;-69
2022/12/07 06:46:20;;;;;;;1999.90;999.90;;;3.90;99.90;;;;;;5027324;28;20490;-68
2022/12/07 06:48:47;;;;;;;1999.90;999.90;;;3.90;99.90;;;;;;5029875;28;20475;-68
2022/12/07 06:51:16;;;;;;;1999.90;999.90;;;3.90;99.90;;;;;;5061250;22;20884;-69
2022/12/07 06:53:42;;;;;;;1999.90;999.90;;;3.90;99.90;;;;;;5052963;28;20480;-69
2022/12/07 06:56:09;;;;;;;1999.90;999.90;;;3.90;99.90;;;;;;5054063;28;20458;-71
2022/12/07 06:58:36;;;;;;;1999.90;999.90;;;4.00;99.90;;;;;;5054683;28;20465;-69
2022/12/07 07:01:03;;;;;;;1999.90;999.90;;;4.00;99.90;;;;;;5052098;28;20493;-67
2022/12/07 07:03:30;;;;;;;1999.90;999.90;;;4.00;99.90;;;;;;5052738;28;20464;-69
2022/12/07 07:05:57;;;;;;;1999.90;999.90;;;4.00;99.90;;;;;;5053643;28;20470;-69
2022/12/07 07:08:25;;;;;;;1999.90;999.90;;;4.00;99.90;;;;;;5053146;28;20462;-71
2022/12/07 07:10:52;;;;;;;1999.90;999.90;;;4.00;99.90;;;;;;5052851;28;20507;-69
2022/12/07 07:13:19;;;;;;;1999.90;999.90;;;4.00;99.90;;;;;;5055960;28;20497;-70
2022/12/07 07:15:45;;;;;;;1999.90;999.90;;;4.00;99.90;;;;;;5051724;28;20459;-69
2022/12/07 07:18:12;;;;;;;1999.90;999.90;;;4.00;99.90;;;;;;5050209;28;20473;-69
2022/12/07 07:20:39;;;;;;;1999.90;999.90;;;4.00;99.90;;;;;;5048981;28;20567;-69
2022/12/07 07:23:07;;;;;;;1999.90;999.90;;;4.00;99.90;;;;;;5050019;28;20482;-71
2022/12/07 07:25:35;;;;;;;1999.90;999.90;;;4.00;99.90;;;;;;5052714;28;20836;-70
2022/12/07 07:28:03;;;;;;;1999.90;999.90;;;4.00;99.90;;;;;;5052543;28;20467;-68
2022/12/07 07:30:30;;;;;;;1999.90;999.90;;;4.00;99.90;;;;;;5053713;28;20485;-68
2022/12/07 07:32:57;;;;;;;1999.90;999.90;;;4.10;99.90;;;;;;5056091;28;20447;-69
2022/12/07 07:35:24;;;;;;;1999.90;999.90;;;4.30;99.90;;;;;;5051961;28;20474;-69
2022/12/07 07:37:51;;;;;;;1999.90;999.90;;;4.00;99.90;;;;;;5051651;28;20458;-71
2022/12/07 07:40:18;;;;;;;1999.90;999.90;;;4.00;99.90;;;;;;5050093;28;20462;-71
2022/12/07 07:42:48;;;;;;;1999.90;999.90;;;4.00;99.90;;;;;;5050820;28;20485;-69
2022/12/07 07:45:15;;;;;;;1999.90;999.90;;;4.10;99.90;;;;;;5054768;28;20449;-69
2022/12/07 07:47:42;;;;;;;1999.90;999.90;;;4.00;99.90;;;;;;5050718;28;20838;-69
2022/12/07 07:50:09;;;;;;;1999.90;999.90;;;4.10;99.90;;;;;;5051619;28;20461;-66
2022/12/07 07:52:36;;;;;;;1999.90;999.90;;;4.20;99.90;;;;;;5050748;28;20455;-69
2022/12/07 07:55:04;;;;;;;1999.90;999.90;;;4.20;99.90;;;;;;5055477;28;20445;-68
2022/12/07 07:57:31;;;;;;;1999.90;999.90;;;4.20;99.90;;;;;;5057053;28;20867;-69
2022/12/07 07:59:59;;;;;;;1999.90;999.90;;;4.20;99.90;;;;;;5057172;28;20888;-69
2022/12/07 08:02:25;;;;;;;1999.90;999.90;;;4.20;99.90;;;;;;5052689;28;20490;-69
2022/12/07 08:04:52;;;;;;;1999.90;999.90;;;4.20;99.90;;;;;;5053729;28;20502;-68
2022/12/07 08:07:19;;;;;;;1999.90;999.90;;;4.30;99.90;;;;;;5052937;28;20451;-69
2022/12/07 08:09:46;;;;;;;1999.90;999.90;;;4.30;99.90;;;;;;5051057;28;20542;-69
2022/12/07 08:12:13;;;;;;;1999.90;999.90;;;4.30;99.90;;;;;;5057009;28;20470;-69
2022/12/07 08:14:39;;;;;;;1999.90;999.90;;;4.30;99.90;;;;;;5050349;28;20462;-68
2022/12/07 08:17:08;;;;;;;1999.90;999.90;;;4.30;99.90;;;;;;5051916;28;20462;-71
2022/12/07 08:19:34;;;;;;;1999.90;999.90;;;4.30;99.90;;;;;;5053108;28;20458;-72
2022/12/07 08:22:01;;;;;;;1999.90;999.90;;;4.30;99.90;;;;;;5051342;28;20485;-73
2022/12/07 08:24:28;;;;;;;1999.90;999.90;;;4.40;99.90;;;;;;5051198;28;20454;-69
2022/12/07 08:26:55;;;;;;;1999.90;999.90;;;4.40;99.90;;;;;;5054010;28;20578;-67
2022/12/07 08:29:22;;;;;;;1999.90;999.90;;;4.30;99.90;;;;;;5053047;28;20473;-69
2022/12/07 08:31:49;;;;;;;1999.90;999.90;;;4.30;99.90;;;;;;5052299;28;20481;-69
2022/12/07 08:34:17;;;;;;;1999.90;999.90;;;4.30;99.90;;;;;;5055966;28;20836;-67
2022/12/07 08:36:44;;;;;;;1999.90;999.90;;;4.30;99.90;;;;;;5054752;28;20462;-68
2022/12/07 08:39:11;;;;;;;1999.90;999.90;;;4.30;99.90;;;;;;5057598;28;20488;-69
2022/12/07 08:41:38;;;;;;;1999.90;999.90;;;4.30;99.90;;;;;;5057510;28;20482;-69
2022/12/07 08:44:05;;;;;;;1999.90;999.90;;;4.30;99.90;;;;;;5055875;28;20453;-69
2022/12/07 08:46:37;;;;;;;1999.90;999.90;;;4.30;99.90;;;;;;5054422;28;20465;-69
2022/12/07 08:49:08;;;;;;;1999.90;999.90;;;4.40;99.90;;;;;;5054829;28;20459;-69
2022/12/07 08:51:36;;;;;;;1999.90;999.90;;;4.40;99.90;;;;;;5054217;28;20486;-69
2022/12/07 08:54:06;;;;;;;1999.90;999.90;;;4.40;99.90;;;;;;5052761;28;20833;-69
2022/12/07 08:56:33;;;;;;;1999.90;999.90;;;4.40;99.90;;;;;;5058453;28;20464;-69
2022/12/07 08:59:00;;;;;;;1999.90;999.90;;;4.40;99.90;;;;;;5060414;28;20453;-69
2022/12/07 09:01:27;;;;;;;1999.90;999.90;;;4.50;99.90;;;;;;5059650;28;20469;-69
2022/12/07 09:03:53;;;;;;;1999.90;999.90;;;4.60;99.90;;;;;;5053568;28;20487;-69
2022/12/07 09:06:20;;;;;;;1999.90;999.90;;;4.70;99.90;;;;;;5055254;28;20844;-69
2022/12/07 09:08:52;;;;;;;1999.90;999.90;;;4.80;99.90;;;;;;5057892;28;20473;-70
2022/12/07 09:11:18;;;;;;;1999.90;999.90;;;5.00;99.90;;;;;;5057642;28;20486;-68
2022/12/07 09:13:45;;;;;;;1999.90;999.90;;;5.10;99.90;;;;;;5054916;28;20451;-70
2022/12/07 09:16:12;;;;;;;1999.90;999.90;;;5.00;99.90;;;;;;5053271;28;20458;-69
2022/12/07 09:18:39;;;;;;;1999.90;999.90;;;4.90;99.90;;;;;;5053697;28;20446;-68
2022/12/07 09:21:06;;;;;;;1999.90;999.90;;;4.90;99.90;;;;;;5049564;28;20490;-69
2022/12/07 09:23:33;;;;;;;1999.90;999.90;;;4.90;99.90;;;;;;5051599;28;20478;-69
2022/12/07 09:26:02;;;;;;;1999.90;999.90;;;4.90;99.90;;;;;;5054663;28;20821;-69
2022/12/07 09:28:29;;;;;;;1999.90;999.90;;;4.90;99.90;;;;;;5049160;28;20466;-69
2022/12/07 09:30:55;;;;;;;1999.90;999.90;;;4.80;99.90;;;;;;5058272;28;20458;-68
2022/12/07 09:33:22;;;;;;;1999.90;999.90;;;4.70;99.90;;;;;;5058058;28;20461;-71
2022/12/07 09:35:51;;;;;;;1999.90;999.90;;;4.70;99.90;;;;;;5047129;28;20445;-69
2022/12/07 09:38:19;;;;;;;1999.90;999.90;;;4.80;99.90;;;;;;5048086;28;20462;-69
2022/12/07 09:40:46;;;;;;;1999.90;999.90;;;4.70;99.90;;;;;;5053323;28;20490;-70
2022/12/07 09:43:17;;;;;;;1999.90;999.90;;;5.00;99.90;;;;;;5045606;28;20488;-68
2022/12/07 09:45:47;;;;;;;1999.90;999.90;;;5.20;99.90;;;;;;5057180;28;20817;-68
2022/12/07 09:48:19;;;;;;;1999.90;999.90;;;4.80;99.90;;;;;;5054143;28;20454;-69
2022/12/07 09:50:48;;;;;;;1999.90;999.90;;;4.80;99.90;;;;;;5052444;28;20485;-70
2022/12/07 09:53:21;;;;;;;1999.90;999.90;;;4.90;99.90;;;;;;5054090;28;20455;-69
2022/12/07 09:55:48;;;;;;;1999.90;999.90;;;4.90;99.90;;;;;;5050504;28;20863;-72
2022/12/07 09:58:24;;;;;;;1999.90;999.90;;;4.90;99.90;;;;;;5051639;28;20465;-69
2022/12/07 10:00:54;;;;;;;1999.90;999.90;;;4.90;99.90;;;;;;5051847;28;20598;-71
2022/12/07 10:03:21;;;;;;;1999.90;999.90;;;4.90;99.90;;;;;;5054086;28;21027;-69
2022/12/07 10:05:51;;;;;;;1999.90;999.90;;;5.00;99.90;;;;;;5055509;28;20493;-69
2022/12/07 10:08:18;;;;;;;1999.90;999.90;;;5.20;99.90;;;;;;5057497;28;20826;-69
2022/12/07 10:10:46;;;;;;;1999.90;999.90;;;5.10;99.90;;;;;;5056943;28;20466;-70
2022/12/07 10:13:15;;;;;;;1999.90;999.90;;;5.20;99.90;;;;;;5039791;28;20454;-69
2022/12/07 10:15:46;;;;;;;1999.90;999.90;;;5.20;99.90;;;;;;5038072;28;20534;-72
2022/12/07 10:18:22;;;;;;;1999.90;999.90;;;5.30;99.90;;;;;;5043258;28;20462;-70
2022/12/07 10:20:49;;;;;;;1999.90;999.90;;;5.30;99.90;;;;;;5056981;28;20477;-70
2022/12/07 10:23:18;;;;;;;1999.90;999.90;;;5.30;99.90;;;;;;5057232;28;20478;-71
2022/12/07 10:25:48;;;;;;;1999.90;999.90;;;5.20;99.90;;;;;;5055568;28;20470;-69
2022/12/07 10:28:16;;;;;;;1999.90;999.90;;;5.20;99.90;;;;;;5058568;28;20458;-73
2022/12/07 10:30:58;;;;;;;1999.90;999.90;;;5.20;99.90;;;;;;5057372;28;20474;-70
2022/12/07 10:33:33;;;;;;;1999.90;999.90;;;5.30;99.90;;;;;;5058728;28;20980;-70
2022/12/07 10:36:02;;;;;;;1999.90;999.90;;;5.30;99.90;;;;;;5055529;28;20465;-70
2022/12/07 10:38:32;;;;;;;1999.90;999.90;;;5.30;99.90;;;;;;5036868;28;20447;-70
2022/12/07 10:41:06;;;;;;;1999.90;999.90;;;5.40;99.90;;;;;;5046010;28;20486;-70
2022/12/07 10:43:33;;;;;;;1999.90;999.90;;;5.60;99.90;;;;;;5050668;28;20473;-70
2022/12/07 10:46:42;;;;;;;1999.90;999.90;;;5.60;99.90;;;;;;5056012;28;20573;-73
2022/12/07 10:49:27;;;;;;;1999.90;999.90;;;5.60;99.90;;;;;;5057136;28;20437;-69
2022/12/07 10:52:01;;;;;;;1999.90;999.90;;;5.60;99.90;;;;;;5057550;28;20478;-69
2022/12/07 10:54:39;;;;;;;1999.90;999.90;;;5.70;99.90;;;;;;5055437;28;20521;-69
2022/12/07 10:57:28;;;;;;;1999.90;999.90;;;5.70;99.90;;;;;;5057836;28;20434;-70
2022/12/07 11:00:04;;;;;;;1999.90;999.90;;;5.70;99.90;;;;;;5054473;28;20458;-67
2022/12/07 11:03:07;;;;;;;1999.90;999.90;;;5.80;99.90;;;;;;5050330;28;20570;-69
2022/12/07 11:05:42;;;;;;;1999.90;999.90;;;5.90;99.90;;;;;;5046291;28;20458;-68
2022/12/07 11:08:18;;;;;;;1999.90;999.90;;;6.00;99.90;;;;;;5052460;28;20461;-70
2022/12/07 11:10:51;;;;;;;1999.90;999.90;;;6.00;99.90;;;;;;5048880;28;20492;-69
2022/12/07 11:13:28;;;;;;;1999.90;999.90;;;6.20;99.90;;;;;;5051153;28;20533;-70
2022/12/07 11:16:13;;;;;;;1999.90;999.90;;;6.30;99.90;;;;;;5050093;28;20451;-70
2022/12/07 11:18:52;;;;;;;1999.90;999.90;;;6.30;99.90;;;;;;5032711;28;20899;-69
2022/12/07 11:21:25;;;;;;;1999.90;999.90;;;6.40;99.90;;;;;;5051258;28;20891;-70
2022/12/07 11:24:00;;;;;;;1999.90;999.90;;;6.30;99.90;;;;;;5051807;28;20466;-69
2022/12/07 11:26:43;;;;;;;1999.90;999.90;;;6.10;99.90;;;;;;5051724;28;20469;-73
2022/12/07 11:29:28;;;;;;;1999.90;999.90;;;6.00;99.90;;;;;;5053105;28;20462;-67
2022/12/07 11:32:06;;;;;;;1999.90;999.90;;;6.00;99.90;;;;;;5051644;28;20473;-71
2022/12/07 11:34:40;;;;;;;1999.90;999.90;;;5.90;99.90;;;;;;5048134;28;20473;-67
2022/12/07 11:37:12;;;;;;;1999.90;999.90;;;5.80;99.90;;;;;;5051127;28;20458;-70
2022/12/07 11:39:46;;;;;;;1999.90;999.90;;;5.80;99.90;;;;;;5047886;28;20482;-70
2022/12/07 11:42:17;;;;;;;1999.90;999.90;;;5.80;99.90;;;;;;5050817;28;20478;-71
2022/12/07 11:44:52;;;;;;;1999.90;999.90;;;5.70;99.90;;;;;;5048333;28;20469;-70
2022/12/07 11:47:26;;;;;;;1999.90;999.90;;;5.60;99.90;;;;;;5054169;28;20450;-69
2022/12/07 11:49:58;;;;;;;1999.90;999.90;;;5.60;99.90;;;;;;5052915;28;20466;-71
2022/12/07 11:52:31;;;;;;;1999.90;999.90;;;5.50;99.90;;;;;;5049826;28;21045;-64
2022/12/07 11:55:01;;;;;;;1999.90;999.90;;;5.40;99.90;;;;;;5048518;28;20987;-67
2022/12/07 11:57:34;;;;;;;1999.90;999.90;;;5.40;99.90;;;;;;5049131;28;20552;-70
2022/12/07 12:00:04;;;;;;;1999.90;999.90;;;5.50;99.90;;;;;;5050237;28;21223;-72
2022/12/07 12:02:38;;;;;;;1999.90;999.90;;;5.60;99.90;;;;;;5053122;28;20481;-73
2022/12/07 12:05:16;;;;;;;1999.90;999.90;;;5.80;99.90;;;;;;5052630;28;20462;-70
2022/12/07 12:07:45;;;;;;;1999.90;999.90;;;5.90;99.90;;;;;;5055411;28;20457;-70
2022/12/07 12:10:20;;;;;;;1999.90;999.90;;;5.90;99.90;;;;;;5050747;28;20469;-71
2022/12/07 12:13:05;;;;;;;1999.90;999.90;;;5.90;99.90;;;;;;5054664;28;20453;-70
2022/12/07 12:15:43;;;;;;;1999.90;999.90;;;5.90;99.90;;;;;;5052359;28;21111;-68
2022/12/07 12:18:34;;;;;;;1999.90;999.90;;;5.80;99.90;;;;;;5056180;28;20520;-69
2022/12/07 12:21:07;;;;;;;1999.90;999.90;;;5.90;99.90;;;;;;5056431;28;20486;-75
2022/12/07 12:23:41;;;;;;;1999.90;999.90;;;6.00;99.90;;;;;;5056880;28;20488;-69
2022/12/07 12:26:14;;;;;;;1999.90;999.90;;;6.00;99.90;;;;;;5048379;28;20480;-68